sensor_id;sensor_type;location;lat;lon;timestamp;P1;durP1;ratioP1;P2;durP2;ratioP2
54125;SDS011;40360;52.992;6.796;2023-01-25T00:02:18;43.75;;;28.85;;
54125;SDS011;40360;52.992;6.796;2023-01-25T00:04:43;43.60;;;27.55;;
54125;SDS011;40360;52.992;6.796;2023-01-25T00:07:09;42.83;;;27.83;;
54125;SDS011;40360;52.992;6.796;2023-01-25T00:09:37;43.50;;;29.30;;
54125;SDS011;40360;52.992;6.796;2023-01-25T00:12:03;45.75;;;29.45;;
54125;SDS011;40360;52.992;6.796;2023-01-25T00:14:29;43.08;;;29.20;;
54125;SDS011;40360;52.992;6.796;2023-01-25T00:16:54;41.47;;;28.67;;
54125;SDS011;40360;52.992;6.796;2023-01-25T00:19:20;39.22;;;26.73;;
54125;SDS011;40360;52.992;6.796;2023-01-25T00:21:46;40.85;;;27.60;;
54125;SDS011;40360;52.992;6.796;2023-01-25T00:24:11;40.72;;;27.17;;
54125;SDS011;40360;52.992;6.796;2023-01-25T00:26:41;45.22;;;29.42;;
54125;SDS011;40360;52.992;6.796;2023-01-25T00:29:10;47.08;;;29.85;;
54125;SDS011;40360;52.992;6.796;2023-01-25T00:31:57;41.10;;;27.73;;
54125;SDS011;40360;52.992;6.796;2023-01-25T00:36:51;41.10;;;27.98;;
54125;SDS011;40360;52.992;6.796;2023-01-25T00:39:19;42.83;;;28.58;;
54125;SDS011;40360;52.992;6.796;2023-01-25T00:41:45;44.88;;;29.67;;
54125;SDS011;40360;52.992;6.796;2023-01-25T00:44:11;44.78;;;28.73;;
54125;SDS011;40360;52.992;6.796;2023-01-25T00:46:36;43.28;;;28.23;;
54125;SDS011;40360;52.992;6.796;2023-01-25T00:49:02;45.55;;;28.70;;
54125;SDS011;40360;52.992;6.796;2023-01-25T00:51:27;44.03;;;28.83;;
54125;SDS011;40360;52.992;6.796;2023-01-25T00:53:53;45.90;;;30.05;;
54125;SDS011;40360;52.992;6.796;2023-01-25T00:56:19;47.60;;;28.38;;
54125;SDS011;40360;52.992;6.796;2023-01-25T00:58:44;44.97;;;28.27;;
54125;SDS011;40360;52.992;6.796;2023-01-25T01:01:10;45.50;;;29.02;;
54125;SDS011;40360;52.992;6.796;2023-01-25T01:03:37;48.65;;;31.50;;
54125;SDS011;40360;52.992;6.796;2023-01-25T01:08:30;45.92;;;30.73;;
54125;SDS011;40360;52.992;6.796;2023-01-25T01:10:58;44.28;;;28.33;;
54125;SDS011;40360;52.992;6.796;2023-01-25T01:13:26;47.08;;;30.13;;
54125;SDS011;40360;52.992;6.796;2023-01-25T01:15:52;43.72;;;28.00;;
54125;SDS011;40360;52.992;6.796;2023-01-25T01:18:17;45.92;;;30.48;;
54125;SDS011;40360;52.992;6.796;2023-01-25T01:20:50;45.58;;;29.55;;
54125;SDS011;40360;52.992;6.796;2023-01-25T01:23:16;42.92;;;27.92;;
54125;SDS011;40360;52.992;6.796;2023-01-25T01:25:42;48.33;;;30.55;;
54125;SDS011;40360;52.992;6.796;2023-01-25T01:28:08;49.83;;;31.13;;
54125;SDS011;40360;52.992;6.796;2023-01-25T01:30:34;54.45;;;31.27;;
54125;SDS011;40360;52.992;6.796;2023-01-25T01:33:00;48.45;;;31.23;;
54125;SDS011;40360;52.992;6.796;2023-01-25T01:35:30;48.28;;;30.70;;
54125;SDS011;40360;52.992;6.796;2023-01-25T01:37:55;49.40;;;29.08;;
54125;SDS011;40360;52.992;6.796;2023-01-25T01:40:21;51.42;;;32.05;;
54125;SDS011;40360;52.992;6.796;2023-01-25T01:42:55;48.35;;;29.75;;
54125;SDS011;40360;52.992;6.796;2023-01-25T01:48:19;46.97;;;29.25;;
54125;SDS011;40360;52.992;6.796;2023-01-25T01:50:56;51.03;;;30.63;;
54125;SDS011;40360;52.992;6.796;2023-01-25T01:53:25;50.95;;;30.83;;
54125;SDS011;40360;52.992;6.796;2023-01-25T01:55:54;50.05;;;32.03;;
54125;SDS011;40360;52.992;6.796;2023-01-25T01:58:23;50.13;;;31.33;;
54125;SDS011;40360;52.992;6.796;2023-01-25T02:00:49;51.53;;;30.88;;
54125;SDS011;40360;52.992;6.796;2023-01-25T02:03:15;47.25;;;30.63;;
54125;SDS011;40360;52.992;6.796;2023-01-25T02:05:50;50.80;;;30.35;;
54125;SDS011;40360;52.992;6.796;2023-01-25T02:08:31;46.63;;;29.83;;
54125;SDS011;40360;52.992;6.796;2023-01-25T02:10:59;48.60;;;29.17;;
54125;SDS011;40360;52.992;6.796;2023-01-25T02:13:25;54.15;;;32.20;;
54125;SDS011;40360;52.992;6.796;2023-01-25T02:15:52;51.28;;;31.83;;
54125;SDS011;40360;52.992;6.796;2023-01-25T02:18:20;50.55;;;31.48;;
54125;SDS011;40360;52.992;6.796;2023-01-25T02:20:48;49.08;;;30.08;;
54125;SDS011;40360;52.992;6.796;2023-01-25T02:25:52;47.15;;;29.77;;
54125;SDS011;40360;52.992;6.796;2023-01-25T02:28:26;49.65;;;30.17;;
54125;SDS011;40360;52.992;6.796;2023-01-25T02:31:00;51.10;;;29.92;;
54125;SDS011;40360;52.992;6.796;2023-01-25T02:33:26;52.25;;;31.38;;
54125;SDS011;40360;52.992;6.796;2023-01-25T02:35:54;50.75;;;31.30;;
54125;SDS011;40360;52.992;6.796;2023-01-25T02:38:25;46.72;;;30.48;;
54125;SDS011;40360;52.992;6.796;2023-01-25T02:41:05;50.83;;;31.42;;
54125;SDS011;40360;52.992;6.796;2023-01-25T02:43:35;50.85;;;31.63;;
54125;SDS011;40360;52.992;6.796;2023-01-25T02:46:43;53.30;;;33.60;;
54125;SDS011;40360;52.992;6.796;2023-01-25T02:48:56;55.13;;;33.13;;
54125;SDS011;40360;52.992;6.796;2023-01-25T02:51:26;54.15;;;32.83;;
54125;SDS011;40360;52.992;6.796;2023-01-25T02:53:54;53.67;;;32.42;;
54125;SDS011;40360;52.992;6.796;2023-01-25T02:56:20;54.80;;;33.50;;
54125;SDS011;40360;52.992;6.796;2023-01-25T02:58:50;57.45;;;34.47;;
54125;SDS011;40360;52.992;6.796;2023-01-25T03:01:15;58.40;;;35.65;;
54125;SDS011;40360;52.992;6.796;2023-01-25T03:03:44;53.65;;;32.97;;
54125;SDS011;40360;52.992;6.796;2023-01-25T03:06:10;57.75;;;34.03;;
54125;SDS011;40360;52.992;6.796;2023-01-25T03:08:35;55.33;;;34.05;;
54125;SDS011;40360;52.992;6.796;2023-01-25T03:11:02;53.85;;;32.65;;
54125;SDS011;40360;52.992;6.796;2023-01-25T03:13:29;57.85;;;35.40;;
54125;SDS011;40360;52.992;6.796;2023-01-25T03:15:59;58.90;;;36.88;;
54125;SDS011;40360;52.992;6.796;2023-01-25T03:18:27;59.53;;;35.15;;
54125;SDS011;40360;52.992;6.796;2023-01-25T03:20:53;55.17;;;35.38;;
54125;SDS011;40360;52.992;6.796;2023-01-25T03:23:19;58.85;;;35.67;;
54125;SDS011;40360;52.992;6.796;2023-01-25T03:25:45;60.47;;;35.28;;
54125;SDS011;40360;52.992;6.796;2023-01-25T03:28:11;58.22;;;35.15;;
54125;SDS011;40360;52.992;6.796;2023-01-25T03:30:37;55.13;;;33.95;;
54125;SDS011;40360;52.992;6.796;2023-01-25T03:33:02;56.58;;;35.08;;
54125;SDS011;40360;52.992;6.796;2023-01-25T03:35:29;61.90;;;37.55;;
54125;SDS011;40360;52.992;6.796;2023-01-25T03:37:54;62.78;;;36.38;;
54125;SDS011;40360;52.992;6.796;2023-01-25T03:40:20;59.45;;;37.55;;
54125;SDS011;40360;52.992;6.796;2023-01-25T03:42:46;58.05;;;37.00;;
54125;SDS011;40360;52.992;6.796;2023-01-25T03:45:14;66.30;;;36.65;;
54125;SDS011;40360;52.992;6.796;2023-01-25T03:47:40;60.67;;;35.97;;
54125;SDS011;40360;52.992;6.796;2023-01-25T03:50:06;62.85;;;38.50;;
54125;SDS011;40360;52.992;6.796;2023-01-25T03:52:35;58.28;;;34.97;;
54125;SDS011;40360;52.992;6.796;2023-01-25T03:55:06;60.55;;;35.28;;
54125;SDS011;40360;52.992;6.796;2023-01-25T03:57:32;61.78;;;36.65;;
54125;SDS011;40360;52.992;6.796;2023-01-25T03:59:58;63.20;;;36.03;;
54125;SDS011;40360;52.992;6.796;2023-01-25T04:02:44;62.05;;;37.50;;
54125;SDS011;40360;52.992;6.796;2023-01-25T04:24:01;59.35;;;34.83;;
54125;SDS011;40360;52.992;6.796;2023-01-25T04:26:26;63.78;;;38.35;;
54125;SDS011;40360;52.992;6.796;2023-01-25T04:28:52;62.25;;;35.97;;
54125;SDS011;40360;52.992;6.796;2023-01-25T04:31:17;65.93;;;37.10;;
54125;SDS011;40360;52.992;6.796;2023-01-25T04:33:43;68.15;;;39.70;;
54125;SDS011;40360;52.992;6.796;2023-01-25T04:36:09;63.35;;;38.17;;
54125;SDS011;40360;52.992;6.796;2023-01-25T04:38:34;62.22;;;37.03;;
54125;SDS011;40360;52.992;6.796;2023-01-25T04:41:00;62.70;;;36.38;;
54125;SDS011;40360;52.992;6.796;2023-01-25T04:43:28;67.18;;;39.13;;
54125;SDS011;40360;52.992;6.796;2023-01-25T04:45:53;66.10;;;38.10;;
54125;SDS011;40360;52.992;6.796;2023-01-25T04:48:19;64.50;;;39.30;;
54125;SDS011;40360;52.992;6.796;2023-01-25T04:50:44;65.18;;;40.92;;
54125;SDS011;40360;52.992;6.796;2023-01-25T04:53:10;66.40;;;39.20;;
54125;SDS011;40360;52.992;6.796;2023-01-25T04:55:36;66.75;;;37.90;;
54125;SDS011;40360;52.992;6.796;2023-01-25T04:58:02;63.83;;;38.67;;
54125;SDS011;40360;52.992;6.796;2023-01-25T05:00:28;66.70;;;38.13;;
54125;SDS011;40360;52.992;6.796;2023-01-25T05:02:55;67.55;;;38.85;;
54125;SDS011;40360;52.992;6.796;2023-01-25T05:20:03;63.30;;;34.78;;
54125;SDS011;40360;52.992;6.796;2023-01-25T05:22:29;64.85;;;37.28;;
54125;SDS011;40360;52.992;6.796;2023-01-25T05:24:55;67.43;;;38.38;;
54125;SDS011;40360;52.992;6.796;2023-01-25T05:27:23;63.67;;;35.58;;
54125;SDS011;40360;52.992;6.796;2023-01-25T05:29:49;65.65;;;36.80;;
54125;SDS011;40360;52.992;6.796;2023-01-25T05:32:17;66.63;;;36.60;;
54125;SDS011;40360;52.992;6.796;2023-01-25T05:34:44;62.10;;;35.60;;
54125;SDS011;40360;52.992;6.796;2023-01-25T05:37:14;66.15;;;38.08;;
54125;SDS011;40360;52.992;6.796;2023-01-25T05:39:41;66.32;;;37.25;;
54125;SDS011;40360;52.992;6.796;2023-01-25T05:42:10;69.63;;;36.38;;
54125;SDS011;40360;52.992;6.796;2023-01-25T05:44:37;65.07;;;37.80;;
54125;SDS011;40360;52.992;6.796;2023-01-25T05:47:04;63.83;;;35.95;;
54125;SDS011;40360;52.992;6.796;2023-01-25T05:49:30;66.97;;;36.63;;
54125;SDS011;40360;52.992;6.796;2023-01-25T05:51:56;63.70;;;35.92;;
54125;SDS011;40360;52.992;6.796;2023-01-25T05:54:21;70.05;;;38.28;;
54125;SDS011;40360;52.992;6.796;2023-01-25T05:56:50;69.10;;;39.08;;
54125;SDS011;40360;52.992;6.796;2023-01-25T05:59:16;64.82;;;37.92;;
54125;SDS011;40360;52.992;6.796;2023-01-25T06:01:41;65.65;;;38.38;;
54125;SDS011;40360;52.992;6.796;2023-01-25T06:04:08;66.40;;;38.55;;
54125;SDS011;40360;52.992;6.796;2023-01-25T06:06:38;59.25;;;34.60;;
54125;SDS011;40360;52.992;6.796;2023-01-25T06:09:03;63.58;;;35.20;;
54125;SDS011;40360;52.992;6.796;2023-01-25T06:11:29;62.05;;;34.97;;
54125;SDS011;40360;52.992;6.796;2023-01-25T06:13:55;58.35;;;33.85;;
54125;SDS011;40360;52.992;6.796;2023-01-25T06:16:21;60.42;;;34.75;;
54125;SDS011;40360;52.992;6.796;2023-01-25T06:18:47;63.80;;;35.15;;
54125;SDS011;40360;52.992;6.796;2023-01-25T06:21:12;60.55;;;33.75;;
54125;SDS011;40360;52.992;6.796;2023-01-25T06:23:38;58.58;;;35.58;;
54125;SDS011;40360;52.992;6.796;2023-01-25T06:26:05;56.05;;;33.28;;
54125;SDS011;40360;52.992;6.796;2023-01-25T06:28:34;59.60;;;34.25;;
54125;SDS011;40360;52.992;6.796;2023-01-25T06:33:37;60.30;;;34.45;;
54125;SDS011;40360;52.992;6.796;2023-01-25T06:36:04;59.03;;;34.00;;
54125;SDS011;40360;52.992;6.796;2023-01-25T06:38:33;57.80;;;33.33;;
54125;SDS011;40360;52.992;6.796;2023-01-25T06:41:00;52.08;;;31.15;;
54125;SDS011;40360;52.992;6.796;2023-01-25T06:43:26;55.78;;;33.17;;
54125;SDS011;40360;52.992;6.796;2023-01-25T06:45:56;56.90;;;33.70;;
54125;SDS011;40360;52.992;6.796;2023-01-25T06:48:26;54.00;;;32.72;;
54125;SDS011;40360;52.992;6.796;2023-01-25T06:50:57;54.55;;;32.72;;
54125;SDS011;40360;52.992;6.796;2023-01-25T06:53:25;56.05;;;33.05;;
54125;SDS011;40360;52.992;6.796;2023-01-25T06:56:00;51.13;;;30.75;;
54125;SDS011;40360;52.992;6.796;2023-01-25T06:58:27;54.20;;;31.48;;
54125;SDS011;40360;52.992;6.796;2023-01-25T07:00:58;53.13;;;31.98;;
54125;SDS011;40360;52.992;6.796;2023-01-25T07:03:29;55.38;;;32.92;;
54125;SDS011;40360;52.992;6.796;2023-01-25T07:06:03;54.53;;;31.92;;
54125;SDS011;40360;52.992;6.796;2023-01-25T07:08:30;53.80;;;31.02;;
54125;SDS011;40360;52.992;6.796;2023-01-25T07:10:56;54.63;;;32.30;;
54125;SDS011;40360;52.992;6.796;2023-01-25T07:13:25;55.67;;;32.17;;
54125;SDS011;40360;52.992;6.796;2023-01-25T07:15:55;54.92;;;31.15;;
54125;SDS011;40360;52.992;6.796;2023-01-25T07:18:23;55.72;;;31.88;;
54125;SDS011;40360;52.992;6.796;2023-01-25T07:20:50;52.15;;;30.98;;
54125;SDS011;40360;52.992;6.796;2023-01-25T07:23:16;55.92;;;30.85;;
54125;SDS011;40360;52.992;6.796;2023-01-25T07:25:44;58.17;;;33.75;;
54125;SDS011;40360;52.992;6.796;2023-01-25T07:28:11;52.78;;;31.98;;
54125;SDS011;40360;52.992;6.796;2023-01-25T07:30:37;54.92;;;31.83;;
54125;SDS011;40360;52.992;6.796;2023-01-25T07:33:02;59.40;;;32.92;;
54125;SDS011;40360;52.992;6.796;2023-01-25T07:35:28;56.65;;;32.33;;
54125;SDS011;40360;52.992;6.796;2023-01-25T07:37:55;58.33;;;31.27;;
54125;SDS011;40360;52.992;6.796;2023-01-25T07:40:20;61.10;;;34.40;;
54125;SDS011;40360;52.992;6.796;2023-01-25T07:42:49;54.88;;;31.30;;
54125;SDS011;40360;52.992;6.796;2023-01-25T07:45:15;59.63;;;32.25;;
54125;SDS011;40360;52.992;6.796;2023-01-25T07:47:41;58.67;;;32.15;;
54125;SDS011;40360;52.992;6.796;2023-01-25T07:50:07;64.13;;;34.25;;
54125;SDS011;40360;52.992;6.796;2023-01-25T07:52:33;58.40;;;33.15;;
54125;SDS011;40360;52.992;6.796;2023-01-25T07:54:59;56.20;;;31.55;;
54125;SDS011;40360;52.992;6.796;2023-01-25T07:57:24;60.50;;;33.40;;
54125;SDS011;40360;52.992;6.796;2023-01-25T07:59:52;57.53;;;32.05;;
54125;SDS011;40360;52.992;6.796;2023-01-25T08:02:17;56.38;;;33.65;;
54125;SDS011;40360;52.992;6.796;2023-01-25T08:04:43;59.80;;;33.15;;
54125;SDS011;40360;52.992;6.796;2023-01-25T08:07:09;58.33;;;32.78;;
54125;SDS011;40360;52.992;6.796;2023-01-25T08:09:35;59.53;;;33.15;;
54125;SDS011;40360;52.992;6.796;2023-01-25T08:12:01;55.22;;;32.55;;
54125;SDS011;40360;52.992;6.796;2023-01-25T08:14:26;63.33;;;34.35;;
54125;SDS011;40360;52.992;6.796;2023-01-25T08:16:52;63.67;;;34.50;;
54125;SDS011;40360;52.992;6.796;2023-01-25T08:19:18;58.80;;;34.08;;
54125;SDS011;40360;52.992;6.796;2023-01-25T08:21:45;64.07;;;35.22;;
54125;SDS011;40360;52.992;6.796;2023-01-25T08:24:11;56.88;;;33.50;;
54125;SDS011;40360;52.992;6.796;2023-01-25T08:26:37;60.38;;;33.95;;
54125;SDS011;40360;52.992;6.796;2023-01-25T08:29:03;56.58;;;32.58;;
54125;SDS011;40360;52.992;6.796;2023-01-25T08:31:30;60.88;;;35.05;;
54125;SDS011;40360;52.992;6.796;2023-01-25T08:33:58;62.15;;;34.92;;
54125;SDS011;40360;52.992;6.796;2023-01-25T08:36:25;63.10;;;34.47;;
54125;SDS011;40360;52.992;6.796;2023-01-25T08:38:52;55.15;;;32.72;;
54125;SDS011;40360;52.992;6.796;2023-01-25T08:41:19;62.53;;;33.53;;
54125;SDS011;40360;52.992;6.796;2023-01-25T08:43:46;58.65;;;34.65;;
54125;SDS011;40360;52.992;6.796;2023-01-25T08:46:12;59.67;;;33.95;;
54125;SDS011;40360;52.992;6.796;2023-01-25T08:48:39;61.95;;;33.90;;
54125;SDS011;40360;52.992;6.796;2023-01-25T08:51:10;55.05;;;32.03;;
54125;SDS011;40360;52.992;6.796;2023-01-25T08:53:37;56.65;;;32.10;;
54125;SDS011;40360;52.992;6.796;2023-01-25T08:56:10;58.72;;;33.17;;
54125;SDS011;40360;52.992;6.796;2023-01-25T08:58:38;55.47;;;33.03;;
54125;SDS011;40360;52.992;6.796;2023-01-25T09:01:06;59.05;;;34.22;;
54125;SDS011;40360;52.992;6.796;2023-01-25T09:03:34;59.30;;;33.70;;
54125;SDS011;40360;52.992;6.796;2023-01-25T09:06:01;59.15;;;32.80;;
54125;SDS011;40360;52.992;6.796;2023-01-25T09:08:26;59.17;;;33.95;;
54125;SDS011;40360;52.992;6.796;2023-01-25T09:10:52;58.75;;;32.85;;
54125;SDS011;40360;52.992;6.796;2023-01-25T09:13:17;60.92;;;32.55;;
54125;SDS011;40360;52.992;6.796;2023-01-25T09:15:43;63.10;;;34.13;;
54125;SDS011;40360;52.992;6.796;2023-01-25T09:18:09;60.70;;;34.00;;
54125;SDS011;40360;52.992;6.796;2023-01-25T09:20:36;56.67;;;31.70;;
54125;SDS011;40360;52.992;6.796;2023-01-25T09:23:04;53.05;;;32.58;;
54125;SDS011;40360;52.992;6.796;2023-01-25T09:25:29;58.20;;;32.67;;
54125;SDS011;40360;52.992;6.796;2023-01-25T09:27:55;60.38;;;34.03;;
54125;SDS011;40360;52.992;6.796;2023-01-25T09:30:20;55.47;;;32.10;;
54125;SDS011;40360;52.992;6.796;2023-01-25T09:32:49;60.30;;;33.25;;
54125;SDS011;40360;52.992;6.796;2023-01-25T09:35:15;56.88;;;32.00;;
54125;SDS011;40360;52.992;6.796;2023-01-25T09:37:40;54.78;;;30.35;;
54125;SDS011;40360;52.992;6.796;2023-01-25T09:40:12;52.00;;;30.00;;
54125;SDS011;40360;52.992;6.796;2023-01-25T09:45:33;58.60;;;32.17;;
54125;SDS011;40360;52.992;6.796;2023-01-25T09:50:47;56.63;;;29.92;;
54125;SDS011;40360;52.992;6.796;2023-01-25T09:53:29;55.50;;;31.42;;
54125;SDS011;40360;52.992;6.796;2023-01-25T09:56:08;60.88;;;33.30;;
54125;SDS011;40360;52.992;6.796;2023-01-25T09:58:39;64.03;;;34.25;;
54125;SDS011;40360;52.992;6.796;2023-01-25T10:01:19;64.22;;;32.53;;
54125;SDS011;40360;52.992;6.796;2023-01-25T10:06:40;62.35;;;34.53;;
54125;SDS011;40360;52.992;6.796;2023-01-25T10:09:15;65.85;;;34.20;;
54125;SDS011;40360;52.992;6.796;2023-01-25T10:11:43;64.70;;;33.88;;
54125;SDS011;40360;52.992;6.796;2023-01-25T10:14:12;68.30;;;34.90;;
54125;SDS011;40360;52.992;6.796;2023-01-25T10:24:52;60.35;;;32.13;;
54125;SDS011;40360;52.992;6.796;2023-01-25T10:27:44;60.03;;;32.08;;
54125;SDS011;40360;52.992;6.796;2023-01-25T10:30:22;60.30;;;32.00;;
54125;SDS011;40360;52.992;6.796;2023-01-25T10:32:52;61.60;;;33.30;;
54125;SDS011;40360;52.992;6.796;2023-01-25T10:35:22;57.85;;;30.15;;
54125;SDS011;40360;52.992;6.796;2023-01-25T10:37:57;62.15;;;33.00;;
54125;SDS011;40360;52.992;6.796;2023-01-25T10:40:26;57.53;;;31.08;;
54125;SDS011;40360;52.992;6.796;2023-01-25T10:43:05;59.70;;;32.30;;
54125;SDS011;40360;52.992;6.796;2023-01-25T10:45:41;59.70;;;31.35;;
54125;SDS011;40360;52.992;6.796;2023-01-25T10:48:10;61.50;;;33.75;;
54125;SDS011;40360;52.992;6.796;2023-01-25T10:50:42;63.58;;;33.85;;
54125;SDS011;40360;52.992;6.796;2023-01-25T10:53:43;64.47;;;33.00;;
54125;SDS011;40360;52.992;6.796;2023-01-25T10:58:44;61.17;;;32.25;;
54125;SDS011;40360;52.992;6.796;2023-01-25T11:01:12;56.08;;;29.42;;
54125;SDS011;40360;52.992;6.796;2023-01-25T11:03:52;57.92;;;30.40;;
54125;SDS011;40360;52.992;6.796;2023-01-25T11:12:20;62.08;;;30.05;;
54125;SDS011;40360;52.992;6.796;2023-01-25T11:14:42;58.63;;;30.27;;
54125;SDS011;40360;52.992;6.796;2023-01-25T11:17:20;59.97;;;32.50;;
54125;SDS011;40360;52.992;6.796;2023-01-25T11:22:51;61.53;;;31.35;;
54125;SDS011;40360;52.992;6.796;2023-01-25T11:25:36;59.88;;;30.50;;
54125;SDS011;40360;52.992;6.796;2023-01-25T11:28:14;62.13;;;31.38;;
54125;SDS011;40360;52.992;6.796;2023-01-25T11:30:41;61.67;;;30.92;;
54125;SDS011;40360;52.992;6.796;2023-01-25T11:33:10;67.65;;;36.45;;
54125;SDS011;40360;52.992;6.796;2023-01-25T11:35:40;64.22;;;32.10;;
54125;SDS011;40360;52.992;6.796;2023-01-25T11:40:46;60.30;;;30.23;;
54125;SDS011;40360;52.992;6.796;2023-01-25T11:51:58;57.90;;;29.08;;
54125;SDS011;40360;52.992;6.796;2023-01-25T11:57:37;61.85;;;28.17;;
54125;SDS011;40360;52.992;6.796;2023-01-25T12:00:27;56.80;;;28.90;;
54125;SDS011;40360;52.992;6.796;2023-01-25T12:03:50;64.55;;;31.13;;
54125;SDS011;40360;52.992;6.796;2023-01-25T12:06:32;58.22;;;29.45;;
54125;SDS011;40360;52.992;6.796;2023-01-25T12:14:20;66.22;;;32.83;;
54125;SDS011;40360;52.992;6.796;2023-01-25T12:22:40;61.80;;;29.85;;
54125;SDS011;40360;52.992;6.796;2023-01-25T12:25:18;58.55;;;28.02;;
54125;SDS011;40360;52.992;6.796;2023-01-25T12:28:20;55.00;;;27.10;;
54125;SDS011;40360;52.992;6.796;2023-01-25T12:30:51;60.70;;;29.67;;
54125;SDS011;40360;52.992;6.796;2023-01-25T12:33:30;64.57;;;30.70;;
54125;SDS011;40360;52.992;6.796;2023-01-25T12:36:21;64.28;;;29.17;;
54125;SDS011;40360;52.992;6.796;2023-01-25T12:38:57;65.70;;;29.77;;
54125;SDS011;40360;52.992;6.796;2023-01-25T12:41:35;59.53;;;29.60;;
54125;SDS011;40360;52.992;6.796;2023-01-25T12:49:43;68.47;;;29.77;;
54125;SDS011;40360;52.992;6.796;2023-01-25T12:52:32;63.50;;;28.17;;
54125;SDS011;40360;52.992;6.796;2023-01-25T12:55:00;66.40;;;30.40;;
54125;SDS011;40360;52.992;6.796;2023-01-25T13:08:20;65.22;;;29.65;;
54125;SDS011;40360;52.992;6.796;2023-01-25T13:10:47;69.07;;;29.90;;
54125;SDS011;40360;52.992;6.796;2023-01-25T13:13:22;62.58;;;29.30;;
54125;SDS011;40360;52.992;6.796;2023-01-25T13:15:52;64.63;;;29.35;;
54125;SDS011;40360;52.992;6.796;2023-01-25T13:21:02;70.65;;;28.33;;
54125;SDS011;40360;52.992;6.796;2023-01-25T13:23:36;70.82;;;28.48;;
54125;SDS011;40360;52.992;6.796;2023-01-25T13:28:52;72.85;;;32.15;;
54125;SDS011;40360;52.992;6.796;2023-01-25T13:34:07;69.72;;;32.90;;
54125;SDS011;40360;52.992;6.796;2023-01-25T13:44:35;73.78;;;30.45;;
54125;SDS011;40360;52.992;6.796;2023-01-25T13:47:05;71.65;;;29.60;;
54125;SDS011;40360;52.992;6.796;2023-01-25T13:49:36;78.30;;;32.00;;
54125;SDS011;40360;52.992;6.796;2023-01-25T13:52:05;72.88;;;30.58;;
54125;SDS011;40360;52.992;6.796;2023-01-25T13:54:31;75.55;;;30.52;;
54125;SDS011;40360;52.992;6.796;2023-01-25T13:57:04;69.28;;;30.65;;
54125;SDS011;40360;52.992;6.796;2023-01-25T13:59:32;69.90;;;31.53;;
54125;SDS011;40360;52.992;6.796;2023-01-25T14:01:58;67.90;;;28.98;;
54125;SDS011;40360;52.992;6.796;2023-01-25T14:04:26;81.90;;;33.58;;
54125;SDS011;40360;52.992;6.796;2023-01-25T14:06:59;78.07;;;31.27;;
54125;SDS011;40360;52.992;6.796;2023-01-25T14:09:26;89.10;;;34.70;;
54125;SDS011;40360;52.992;6.796;2023-01-25T14:11:58;75.65;;;31.52;;
54125;SDS011;40360;52.992;6.796;2023-01-25T14:14:32;79.45;;;32.30;;
54125;SDS011;40360;52.992;6.796;2023-01-25T14:17:18;78.63;;;32.97;;
54125;SDS011;40360;52.992;6.796;2023-01-25T14:19:47;80.45;;;30.95;;
54125;SDS011;40360;52.992;6.796;2023-01-25T14:25:31;75.82;;;30.35;;
54125;SDS011;40360;52.992;6.796;2023-01-25T14:27:35;74.80;;;31.20;;
54125;SDS011;40360;52.992;6.796;2023-01-25T14:30:06;78.00;;;32.95;;
54125;SDS011;40360;52.992;6.796;2023-01-25T14:32:44;83.75;;;36.25;;
54125;SDS011;40360;52.992;6.796;2023-01-25T14:40:24;75.70;;;31.08;;
54125;SDS011;40360;52.992;6.796;2023-01-25T14:42:51;80.20;;;32.03;;
54125;SDS011;40360;52.992;6.796;2023-01-25T14:45:18;85.43;;;33.30;;
54125;SDS011;40360;52.992;6.796;2023-01-25T14:47:47;82.97;;;31.80;;
54125;SDS011;40360;52.992;6.796;2023-01-25T14:55:43;73.65;;;31.77;;
54125;SDS011;40360;52.992;6.796;2023-01-25T14:58:11;76.55;;;31.40;;
54125;SDS011;40360;52.992;6.796;2023-01-25T15:00:50;75.57;;;32.20;;
54125;SDS011;40360;52.992;6.796;2023-01-25T15:03:21;69.78;;;30.15;;
54125;SDS011;40360;52.992;6.796;2023-01-25T15:05:47;78.68;;;33.65;;
54125;SDS011;40360;52.992;6.796;2023-01-25T15:08:27;73.88;;;32.30;;
54125;SDS011;40360;52.992;6.796;2023-01-25T15:10:55;74.70;;;29.88;;
54125;SDS011;40360;52.992;6.796;2023-01-25T15:13:42;73.35;;;30.60;;
54125;SDS011;40360;52.992;6.796;2023-01-25T15:16:08;71.95;;;30.00;;
54125;SDS011;40360;52.992;6.796;2023-01-25T15:18:47;70.15;;;29.08;;
54125;SDS011;40360;52.992;6.796;2023-01-25T15:21:28;69.47;;;28.67;;
54125;SDS011;40360;52.992;6.796;2023-01-25T15:23:56;74.32;;;29.20;;
54125;SDS011;40360;52.992;6.796;2023-01-25T15:26:29;71.20;;;30.27;;
54125;SDS011;40360;52.992;6.796;2023-01-25T15:28:57;62.20;;;27.20;;
54125;SDS011;40360;52.992;6.796;2023-01-25T15:31:28;72.10;;;29.27;;
54125;SDS011;40360;52.992;6.796;2023-01-25T15:33:56;67.10;;;27.38;;
54125;SDS011;40360;52.992;6.796;2023-01-25T15:36:22;74.35;;;31.30;;
54125;SDS011;40360;52.992;6.796;2023-01-25T15:38:48;85.63;;;34.15;;
54125;SDS011;40360;52.992;6.796;2023-01-25T15:41:14;87.50;;;33.80;;
54125;SDS011;40360;52.992;6.796;2023-01-25T15:43:42;78.70;;;31.58;;
54125;SDS011;40360;52.992;6.796;2023-01-25T15:46:22;76.38;;;31.52;;
54125;SDS011;40360;52.992;6.796;2023-01-25T15:48:50;81.70;;;31.58;;
54125;SDS011;40360;52.992;6.796;2023-01-25T15:51:16;78.07;;;30.98;;
54125;SDS011;40360;52.992;6.796;2023-01-25T15:53:48;84.28;;;31.60;;
54125;SDS011;40360;52.992;6.796;2023-01-25T15:56:18;80.53;;;31.52;;
54125;SDS011;40360;52.992;6.796;2023-01-25T15:58:49;86.75;;;32.75;;
54125;SDS011;40360;52.992;6.796;2023-01-25T16:01:17;88.60;;;33.58;;
54125;SDS011;40360;52.992;6.796;2023-01-25T16:03:43;83.32;;;29.83;;
54125;SDS011;40360;52.992;6.796;2023-01-25T16:06:31;82.45;;;30.90;;
54125;SDS011;40360;52.992;6.796;2023-01-25T16:09:00;86.25;;;30.60;;
54125;SDS011;40360;52.992;6.796;2023-01-25T16:11:44;93.38;;;33.22;;
54125;SDS011;40360;52.992;6.796;2023-01-25T16:14:17;79.43;;;30.88;;
54125;SDS011;40360;52.992;6.796;2023-01-25T16:16:44;99.18;;;34.28;;
54125;SDS011;40360;52.992;6.796;2023-01-25T16:19:13;74.78;;;29.25;;
54125;SDS011;40360;52.992;6.796;2023-01-25T16:21:40;83.55;;;32.10;;
54125;SDS011;40360;52.992;6.796;2023-01-25T16:24:07;86.43;;;31.40;;
54125;SDS011;40360;52.992;6.796;2023-01-25T16:26:33;82.97;;;31.38;;
54125;SDS011;40360;52.992;6.796;2023-01-25T16:29:01;81.80;;;31.77;;
54125;SDS011;40360;52.992;6.796;2023-01-25T16:31:27;72.93;;;30.17;;
54125;SDS011;40360;52.992;6.796;2023-01-25T16:33:52;79.93;;;31.10;;
54125;SDS011;40360;52.992;6.796;2023-01-25T16:36:19;87.95;;;33.88;;
54125;SDS011;40360;52.992;6.796;2023-01-25T16:38:46;94.47;;;33.95;;
54125;SDS011;40360;52.992;6.796;2023-01-25T16:41:12;86.65;;;33.30;;
54125;SDS011;40360;52.992;6.796;2023-01-25T16:43:39;83.03;;;32.63;;
54125;SDS011;40360;52.992;6.796;2023-01-25T16:46:13;80.35;;;30.10;;
54125;SDS011;40360;52.992;6.796;2023-01-25T16:48:40;79.15;;;33.60;;
54125;SDS011;40360;52.992;6.796;2023-01-25T16:51:09;80.88;;;32.78;;
54125;SDS011;40360;52.992;6.796;2023-01-25T16:53:40;86.40;;;33.78;;
54125;SDS011;40360;52.992;6.796;2023-01-25T16:56:07;86.97;;;35.22;;
54125;SDS011;40360;52.992;6.796;2023-01-25T16:58:39;82.32;;;32.88;;
54125;SDS011;40360;52.992;6.796;2023-01-25T17:01:08;92.15;;;35.70;;